AirNav   Air Wisconsin Up To $57,000 Bonus
 
 1627 users online  

1MO1 St Joseph Hospital Heliport
Kirkwood, Missouri, USA

GOING TO KIRKWOOD?


FAA INFORMATION EFFECTIVE 17 JUNE 2021

Location

FAA Identifier: 1MO1
Lat/Long: 38-34-05.1910N 090-26-02.4290W
38-34.086517N 090-26.040483W
38.5681086,-90.4340081
(estimated)
Elevation: 530 ft. / 162 m (estimated)
Variation: 02E (1985)
Time zone: UTC -5 (UTC -6 during Standard Time)
Zip code: 63122

Heliport Operations

Heliport use: Private use, MEDICAL USE.
Activation date: 05/1991
Control tower: no
ARTCC: KANSAS CITY CENTER
FSS: SAINT LOUIS FLIGHT SERVICE STATION
Attendance: CONTINUOUS
Wind indicator: lighted
Segmented circle: no
Lights: SS-SR

Heliport Communications

WX ASOS at STL (11 nm N): PHONE 314-890-4790
WX ASOS at SUS (12 nm NW): 134.8 (314-890-7255)
WX ASOS at CPS (13 nm E): PHONE 618-332-0001

Nearby radio navigation aids

VOR radial/distance  VOR name  Freq  Var
STLr172/17.7ST LOUIS VORTAC117.4001E
TOYr243/26.2TROY VORTAC116.0004E
FTZr102/26.3FORISTELL VORTAC110.8005E

 
NDB name  Hdg/Dist  Freq  Var  ID
EAVES142/8.422701WFZ ..-. --..
CIVIC MEMORIAL223/26.326301WCVM -.-. ...- --

Heliport Services

Runway Information

Helipad H1

Dimensions: 110 x 70 ft. / 34 x 21 m
Surface: concrete
Runway edge lights: FLD
Latitude: 38-34.086517N
Longitude: 090-26.040483W
Elevation: 530.0 ft.
Traffic pattern: leftleft

Heliport Ownership and Management from official FAA records

Ownership: Privately-owned
Owner: ST JOSEPH HOSPITAL
525 COUCH AVE
KIRKWOOD, MO 63122
Phone 314-966-1500
Manager: RICHARD A CUNNINGHAM
525 COUCH AVE
KIRKWOOD, MO 63122
Phone 573-966-1500

Additional Remarks

A52-H1 +40 FT BLDG 100 FT SOUTH.
FOR CD CTC ST LOUIS APCH AT 314-890-1018.

Instrument Procedures

There are no published instrument procedures at 1MO1.

Some nearby airports with instrument procedures:

1H0 - Creve Coeur Airport (10 nm N)
KSTL - St Louis Lambert International Airport (11 nm N)
KSUS - Spirit of St Louis Airport (12 nm NW)
KCPS - St Louis Downtown Airport (13 nm E)
KSET - St Charles County Smartt Airport (22 nm N)
 
Loc | Ops | Rwys | IFR | FBO | Links
Com | Nav | Svcs | Stats | Notes
Area around 1MO1 (St Joseph Hospital Heliport)
 
Road maps at: MapQuest Bing Google
 
Aerial photo
No photo
 
Sectional chart

 
Airport distance calculator
Flying to St Joseph Hospital Heliport? Find the distance to fly.

From to 1MO1

Sunrise and sunset
Times for 24-Jun-2021
 Local
(UTC-5)
 Zulu
(UTC)
Morning civil twilight05:0710:07
Sunrise05:3910:39
Sunset20:2901:29
Evening civil twilight21:0102:01

Current date and time
Zulu (UTC)  24-Jun-2021 19:06:59
Local (UTC-5)  24-Jun-2021 14:06:59
 
METAR
KSUS 
11nm NW 
241854Z 14004KT 10SM CLR 25/22 A2996 RMK AO2 RAE31 TSE1758 PRESFR SLP136 P0000 T02500222
KSTL 
11nm N 
241851Z 21008KT 10SM FEW050 SCT070 BKN160 OVC250 27/21 A2999 RMK AO2 SLP146 RAE41 TSE22 P0000 T02720211
KCPS 
13nm E 
241853Z 17005KT 10SM SCT032 28/22 A2998 RMK AO2 SLP149 T02780222
KSET 
22nm N 
241854Z AUTO 17008KT 10SM FEW120 26/22 A2996 RMK AO2 RAE1756B08E31 SLP139 P0001 T02610217 $
TAF
KSUS 
11nm NW 
241723Z 2418/2518 20008KT P6SM VCTS OVC050CB TEMPO 2418/2420 3SM TSRA FM242100 18012KT P6SM BKN050 FM250700 19009KT 4SM SHRA BR VCTS OVC040CB FM251300 19009KT P6SM BKN035
KSTL 
11nm N 
241723Z 2418/2524 19008KT P6SM VCTS OVC050CB TEMPO 2418/2420 3SM TSRA FM242100 18012G18KT P6SM BKN050 FM250700 19011KT 4SM SHRA BR VCTS OVC040CB FM251300 19010KT P6SM BKN035 FM252000 20011KT P6SM SHRA VCTS BKN045CB
KCPS 
13nm E 
241723Z 2418/2518 19008KT P6SM OVC050 FM241900 19009KT P6SM VCTS OVC050CB FM242100 18011G18KT P6SM BKN050 FM250800 19010KT 4SM SHRA BR VCTS OVC040CB FM251400 19009KT P6SM BKN035
NOTAMs
Click for the latest NOTAMs
NOTAMs are issued by the DoD/FAA and will open in a separate window not controlled by AirNav.

 

 
 

Would you like to see your business listed on this page?

 If your business provides an interesting product or service to pilots, flight crews, aircraft, or users of the St Joseph Hospital Heliport, you should consider listing it here.  To start the listing process, click on the button below
 
Add a business
 

Other Pages about St Joseph Hospital Heliport

Update a link
 
Copyright © AirNav, LLC. All rights reserved. Privacy Policy  Contact